sensor_id;sensor_type;location;lat;lon;timestamp;P1;durP1;ratioP1;P2;durP2;ratioP2
20828;SDS011;10575;50.124;8.582;2023-07-16T00:02:02;3.63;;;2.72;;
20828;SDS011;10575;50.124;8.582;2023-07-16T00:04:29;5.57;;;2.88;;
20828;SDS011;10575;50.124;8.582;2023-07-16T00:06:55;8.57;;;2.90;;
20828;SDS011;10575;50.124;8.582;2023-07-16T00:09:21;5.20;;;3.17;;
20828;SDS011;10575;50.124;8.582;2023-07-16T00:11:47;4.15;;;3.03;;
20828;SDS011;10575;50.124;8.582;2023-07-16T00:14:12;3.17;;;2.60;;
20828;SDS011;10575;50.124;8.582;2023-07-16T00:16:38;7.90;;;2.70;;
20828;SDS011;10575;50.124;8.582;2023-07-16T00:19:06;3.70;;;2.90;;
20828;SDS011;10575;50.124;8.582;2023-07-16T00:21:32;8.90;;;2.65;;
20828;SDS011;10575;50.124;8.582;2023-07-16T00:23:58;3.33;;;3.03;;
20828;SDS011;10575;50.124;8.582;2023-07-16T00:26:24;5.78;;;2.72;;
20828;SDS011;10575;50.124;8.582;2023-07-16T00:28:49;5.65;;;2.70;;
20828;SDS011;10575;50.124;8.582;2023-07-16T00:31:15;3.63;;;2.25;;
20828;SDS011;10575;50.124;8.582;2023-07-16T00:33:40;4.13;;;2.55;;
20828;SDS011;10575;50.124;8.582;2023-07-16T00:36:07;4.55;;;2.65;;
20828;SDS011;10575;50.124;8.582;2023-07-16T00:38:45;2.47;;;2.28;;
20828;SDS011;10575;50.124;8.582;2023-07-16T00:41:11;6.15;;;2.60;;
20828;SDS011;10575;50.124;8.582;2023-07-16T00:43:38;3.97;;;2.40;;
20828;SDS011;10575;50.124;8.582;2023-07-16T00:46:03;6.68;;;2.85;;
20828;SDS011;10575;50.124;8.582;2023-07-16T00:48:29;4.72;;;2.30;;
20828;SDS011;10575;50.124;8.582;2023-07-16T00:50:54;2.72;;;2.40;;
20828;SDS011;10575;50.124;8.582;2023-07-16T00:53:22;3.08;;;2.13;;
20828;SDS011;10575;50.124;8.582;2023-07-16T00:55:47;3.97;;;2.17;;
20828;SDS011;10575;50.124;8.582;2023-07-16T00:58:13;2.92;;;2.63;;
20828;SDS011;10575;50.124;8.582;2023-07-16T01:00:41;4.80;;;2.45;;
20828;SDS011;10575;50.124;8.582;2023-07-16T01:03:07;3.97;;;2.30;;
20828;SDS011;10575;50.124;8.582;2023-07-16T01:05:36;5.40;;;2.45;;
20828;SDS011;10575;50.124;8.582;2023-07-16T01:08:30;6.13;;;2.75;;
20828;SDS011;10575;50.124;8.582;2023-07-16T01:11:18;2.72;;;2.20;;
20828;SDS011;10575;50.124;8.582;2023-07-16T01:13:44;5.03;;;2.38;;
20828;SDS011;10575;50.124;8.582;2023-07-16T01:16:20;5.22;;;2.35;;
20828;SDS011;10575;50.124;8.582;2023-07-16T01:18:47;5.53;;;2.20;;
20828;SDS011;10575;50.124;8.582;2023-07-16T01:21:13;6.47;;;2.40;;
20828;SDS011;10575;50.124;8.582;2023-07-16T01:29:33;5.47;;;2.45;;
20828;SDS011;10575;50.124;8.582;2023-07-16T01:32:03;4.03;;;2.63;;
20828;SDS011;10575;50.124;8.582;2023-07-16T01:34:30;4.80;;;1.95;;
20828;SDS011;10575;50.124;8.582;2023-07-16T01:36:59;2.55;;;2.13;;
20828;SDS011;10575;50.124;8.582;2023-07-16T01:39:25;3.17;;;2.22;;
20828;SDS011;10575;50.124;8.582;2023-07-16T01:41:52;7.00;;;2.08;;
20828;SDS011;10575;50.124;8.582;2023-07-16T01:44:17;3.55;;;2.20;;
20828;SDS011;10575;50.124;8.582;2023-07-16T01:46:43;7.75;;;2.70;;
20828;SDS011;10575;50.124;8.582;2023-07-16T01:49:08;5.82;;;2.63;;
20828;SDS011;10575;50.124;8.582;2023-07-16T01:51:34;3.90;;;2.20;;
20828;SDS011;10575;50.124;8.582;2023-07-16T01:54:04;4.78;;;2.40;;
20828;SDS011;10575;50.124;8.582;2023-07-16T01:56:45;4.88;;;2.47;;
20828;SDS011;10575;50.124;8.582;2023-07-16T01:59:17;5.07;;;2.55;;
20828;SDS011;10575;50.124;8.582;2023-07-16T02:01:44;4.45;;;2.28;;
20828;SDS011;10575;50.124;8.582;2023-07-16T02:04:10;4.50;;;2.25;;
20828;SDS011;10575;50.124;8.582;2023-07-16T02:06:35;4.45;;;2.33;;
20828;SDS011;10575;50.124;8.582;2023-07-16T02:09:01;3.55;;;2.20;;
20828;SDS011;10575;50.124;8.582;2023-07-16T02:11:26;3.47;;;2.05;;
20828;SDS011;10575;50.124;8.582;2023-07-16T02:13:53;5.22;;;1.90;;
20828;SDS011;10575;50.124;8.582;2023-07-16T02:16:19;5.72;;;2.20;;
20828;SDS011;10575;50.124;8.582;2023-07-16T02:18:44;4.30;;;2.47;;
20828;SDS011;10575;50.124;8.582;2023-07-16T02:21:10;3.05;;;2.33;;
20828;SDS011;10575;50.124;8.582;2023-07-16T02:23:36;4.95;;;2.20;;
20828;SDS011;10575;50.124;8.582;2023-07-16T02:26:01;8.57;;;3.13;;
20828;SDS011;10575;50.124;8.582;2023-07-16T02:28:27;3.28;;;2.30;;
20828;SDS011;10575;50.124;8.582;2023-07-16T02:30:52;2.58;;;2.22;;
20828;SDS011;10575;50.124;8.582;2023-07-16T02:33:18;5.80;;;2.53;;
20828;SDS011;10575;50.124;8.582;2023-07-16T02:35:47;5.53;;;2.70;;
20828;SDS011;10575;50.124;8.582;2023-07-16T02:38:13;4.68;;;2.20;;
20828;SDS011;10575;50.124;8.582;2023-07-16T02:40:46;5.47;;;2.30;;
20828;SDS011;10575;50.124;8.582;2023-07-16T02:43:12;5.53;;;2.10;;
20828;SDS011;10575;50.124;8.582;2023-07-16T02:45:38;3.28;;;2.10;;
20828;SDS011;10575;50.124;8.582;2023-07-16T02:48:04;3.65;;;2.20;;
20828;SDS011;10575;50.124;8.582;2023-07-16T02:50:33;2.42;;;2.00;;
20828;SDS011;10575;50.124;8.582;2023-07-16T02:53:00;3.22;;;2.38;;
20828;SDS011;10575;50.124;8.582;2023-07-16T02:55:25;4.75;;;2.20;;
20828;SDS011;10575;50.124;8.582;2023-07-16T02:57:51;2.30;;;1.92;;
20828;SDS011;10575;50.124;8.582;2023-07-16T03:00:16;3.80;;;2.33;;
20828;SDS011;10575;50.124;8.582;2023-07-16T03:02:42;8.13;;;2.35;;
20828;SDS011;10575;50.124;8.582;2023-07-16T03:05:07;7.07;;;2.40;;
20828;SDS011;10575;50.124;8.582;2023-07-16T03:07:33;2.67;;;2.22;;
20828;SDS011;10575;50.124;8.582;2023-07-16T03:09:59;4.10;;;2.20;;
20828;SDS011;10575;50.124;8.582;2023-07-16T03:12:25;8.45;;;2.42;;
20828;SDS011;10575;50.124;8.582;2023-07-16T03:14:52;2.80;;;2.13;;
20828;SDS011;10575;50.124;8.582;2023-07-16T03:17:37;5.85;;;2.45;;
20828;SDS011;10575;50.124;8.582;2023-07-16T03:20:03;6.10;;;2.22;;
20828;SDS011;10575;50.124;8.582;2023-07-16T03:22:30;3.03;;;2.20;;
20828;SDS011;10575;50.124;8.582;2023-07-16T03:24:56;5.53;;;2.72;;
20828;SDS011;10575;50.124;8.582;2023-07-16T03:27:21;4.55;;;2.30;;
20828;SDS011;10575;50.124;8.582;2023-07-16T03:29:47;5.55;;;2.65;;
20828;SDS011;10575;50.124;8.582;2023-07-16T03:32:12;12.40;;;2.72;;
20828;SDS011;10575;50.124;8.582;2023-07-16T03:34:38;6.30;;;2.47;;
20828;SDS011;10575;50.124;8.582;2023-07-16T03:37:03;6.07;;;2.92;;
20828;SDS011;10575;50.124;8.582;2023-07-16T03:39:29;5.00;;;2.50;;
20828;SDS011;10575;50.124;8.582;2023-07-16T03:41:54;8.77;;;2.78;;
20828;SDS011;10575;50.124;8.582;2023-07-16T03:44:20;9.73;;;2.80;;
20828;SDS011;10575;50.124;8.582;2023-07-16T03:46:45;5.40;;;3.03;;
20828;SDS011;10575;50.124;8.582;2023-07-16T03:49:11;4.43;;;3.08;;
20828;SDS011;10575;50.124;8.582;2023-07-16T03:51:37;4.68;;;3.05;;
20828;SDS011;10575;50.124;8.582;2023-07-16T03:54:02;4.75;;;2.90;;
20828;SDS011;10575;50.124;8.582;2023-07-16T03:56:28;11.95;;;3.08;;
20828;SDS011;10575;50.124;8.582;2023-07-16T03:58:56;8.77;;;3.22;;
20828;SDS011;10575;50.124;8.582;2023-07-16T04:01:21;4.53;;;3.03;;
20828;SDS011;10575;50.124;8.582;2023-07-16T04:03:47;5.63;;;3.20;;
20828;SDS011;10575;50.124;8.582;2023-07-16T04:06:13;5.88;;;2.63;;
20828;SDS011;10575;50.124;8.582;2023-07-16T04:08:39;7.22;;;3.28;;
20828;SDS011;10575;50.124;8.582;2023-07-16T04:11:05;5.70;;;3.03;;
20828;SDS011;10575;50.124;8.582;2023-07-16T04:13:31;4.22;;;3.08;;
20828;SDS011;10575;50.124;8.582;2023-07-16T04:15:57;7.30;;;3.28;;
20828;SDS011;10575;50.124;8.582;2023-07-16T04:18:23;4.90;;;2.80;;
20828;SDS011;10575;50.124;8.582;2023-07-16T04:20:49;4.38;;;3.30;;
20828;SDS011;10575;50.124;8.582;2023-07-16T04:23:15;6.72;;;2.88;;
20828;SDS011;10575;50.124;8.582;2023-07-16T04:25:41;7.00;;;2.63;;
20828;SDS011;10575;50.124;8.582;2023-07-16T04:28:06;7.28;;;2.90;;
20828;SDS011;10575;50.124;8.582;2023-07-16T04:30:32;8.80;;;3.42;;
20828;SDS011;10575;50.124;8.582;2023-07-16T04:32:57;7.15;;;2.65;;
20828;SDS011;10575;50.124;8.582;2023-07-16T04:35:41;5.45;;;3.53;;
20828;SDS011;10575;50.124;8.582;2023-07-16T04:38:12;6.47;;;3.20;;
20828;SDS011;10575;50.124;8.582;2023-07-16T04:40:42;5.03;;;3.00;;
20828;SDS011;10575;50.124;8.582;2023-07-16T04:43:08;8.02;;;2.78;;
20828;SDS011;10575;50.124;8.582;2023-07-16T04:45:34;8.15;;;2.92;;
20828;SDS011;10575;50.124;8.582;2023-07-16T04:47:59;6.88;;;3.42;;
20828;SDS011;10575;50.124;8.582;2023-07-16T04:50:24;5.57;;;2.70;;
20828;SDS011;10575;50.124;8.582;2023-07-16T04:52:50;4.63;;;2.70;;
20828;SDS011;10575;50.124;8.582;2023-07-16T04:55:16;7.72;;;3.00;;
20828;SDS011;10575;50.124;8.582;2023-07-16T04:57:41;7.72;;;2.75;;
20828;SDS011;10575;50.124;8.582;2023-07-16T05:00:07;4.97;;;2.65;;
20828;SDS011;10575;50.124;8.582;2023-07-16T05:02:33;5.15;;;2.63;;
20828;SDS011;10575;50.124;8.582;2023-07-16T05:04:58;6.88;;;2.63;;
20828;SDS011;10575;50.124;8.582;2023-07-16T05:07:24;7.45;;;2.78;;
20828;SDS011;10575;50.124;8.582;2023-07-16T05:09:49;4.95;;;3.13;;
20828;SDS011;10575;50.124;8.582;2023-07-16T05:12:15;5.82;;;2.60;;
20828;SDS011;10575;50.124;8.582;2023-07-16T05:14:44;7.80;;;3.10;;
20828;SDS011;10575;50.124;8.582;2023-07-16T05:17:11;9.65;;;3.03;;
20828;SDS011;10575;50.124;8.582;2023-07-16T05:19:38;10.35;;;3.30;;
20828;SDS011;10575;50.124;8.582;2023-07-16T05:22:03;3.65;;;2.60;;
20828;SDS011;10575;50.124;8.582;2023-07-16T05:24:29;8.68;;;2.55;;
20828;SDS011;10575;50.124;8.582;2023-07-16T05:26:56;6.05;;;2.92;;
20828;SDS011;10575;50.124;8.582;2023-07-16T05:29:21;4.97;;;2.83;;
20828;SDS011;10575;50.124;8.582;2023-07-16T05:31:47;6.32;;;2.85;;
20828;SDS011;10575;50.124;8.582;2023-07-16T05:34:12;11.07;;;3.38;;
20828;SDS011;10575;50.124;8.582;2023-07-16T05:36:38;7.53;;;3.00;;
20828;SDS011;10575;50.124;8.582;2023-07-16T05:39:05;4.68;;;2.72;;
20828;SDS011;10575;50.124;8.582;2023-07-16T05:41:33;4.65;;;2.80;;
20828;SDS011;10575;50.124;8.582;2023-07-16T05:43:59;5.78;;;2.63;;
20828;SDS011;10575;50.124;8.582;2023-07-16T05:46:24;5.68;;;2.83;;
20828;SDS011;10575;50.124;8.582;2023-07-16T05:48:50;4.43;;;2.90;;
20828;SDS011;10575;50.124;8.582;2023-07-16T05:51:16;6.85;;;2.80;;
20828;SDS011;10575;50.124;8.582;2023-07-16T05:53:47;9.23;;;3.20;;
20828;SDS011;10575;50.124;8.582;2023-07-16T05:56:14;7.32;;;2.70;;
20828;SDS011;10575;50.124;8.582;2023-07-16T05:58:46;5.22;;;2.30;;
20828;SDS011;10575;50.124;8.582;2023-07-16T06:01:11;5.82;;;2.25;;
20828;SDS011;10575;50.124;8.582;2023-07-16T06:03:37;3.95;;;2.40;;
20828;SDS011;10575;50.124;8.582;2023-07-16T06:06:02;7.10;;;2.92;;
20828;SDS011;10575;50.124;8.582;2023-07-16T06:08:28;5.72;;;2.20;;
20828;SDS011;10575;50.124;8.582;2023-07-16T06:10:54;10.65;;;2.80;;
20828;SDS011;10575;50.124;8.582;2023-07-16T06:13:20;5.18;;;2.75;;
20828;SDS011;10575;50.124;8.582;2023-07-16T06:15:46;5.20;;;2.45;;
20828;SDS011;10575;50.124;8.582;2023-07-16T06:18:12;4.35;;;2.85;;
20828;SDS011;10575;50.124;8.582;2023-07-16T06:20:38;6.30;;;2.70;;
20828;SDS011;10575;50.124;8.582;2023-07-16T06:23:03;7.05;;;2.63;;
20828;SDS011;10575;50.124;8.582;2023-07-16T06:25:29;5.72;;;2.53;;
20828;SDS011;10575;50.124;8.582;2023-07-16T06:27:55;5.68;;;2.47;;
20828;SDS011;10575;50.124;8.582;2023-07-16T06:30:20;4.72;;;2.90;;
20828;SDS011;10575;50.124;8.582;2023-07-16T06:32:48;8.05;;;3.00;;
20828;SDS011;10575;50.124;8.582;2023-07-16T06:35:14;6.55;;;2.40;;
20828;SDS011;10575;50.124;8.582;2023-07-16T06:37:39;7.18;;;2.90;;
20828;SDS011;10575;50.124;8.582;2023-07-16T06:40:05;6.57;;;2.78;;
20828;SDS011;10575;50.124;8.582;2023-07-16T06:42:31;4.65;;;2.58;;
20828;SDS011;10575;50.124;8.582;2023-07-16T06:44:57;6.25;;;2.70;;
20828;SDS011;10575;50.124;8.582;2023-07-16T06:47:22;5.70;;;2.83;;
20828;SDS011;10575;50.124;8.582;2023-07-16T06:49:48;4.63;;;2.42;;
20828;SDS011;10575;50.124;8.582;2023-07-16T06:52:21;6.53;;;2.42;;
20828;SDS011;10575;50.124;8.582;2023-07-16T06:54:47;7.88;;;2.60;;
20828;SDS011;10575;50.124;8.582;2023-07-16T06:57:13;6.90;;;2.75;;
20828;SDS011;10575;50.124;8.582;2023-07-16T06:59:58;6.93;;;2.47;;
20828;SDS011;10575;50.124;8.582;2023-07-16T07:02:24;5.03;;;2.53;;
20828;SDS011;10575;50.124;8.582;2023-07-16T07:04:50;5.75;;;2.47;;
20828;SDS011;10575;50.124;8.582;2023-07-16T07:07:15;6.45;;;2.50;;
20828;SDS011;10575;50.124;8.582;2023-07-16T07:09:41;5.93;;;2.25;;
20828;SDS011;10575;50.124;8.582;2023-07-16T07:12:06;3.75;;;2.35;;
20828;SDS011;10575;50.124;8.582;2023-07-16T07:14:32;3.58;;;2.38;;
20828;SDS011;10575;50.124;8.582;2023-07-16T07:16:58;4.70;;;2.50;;
20828;SDS011;10575;50.124;8.582;2023-07-16T07:19:24;6.32;;;3.00;;
20828;SDS011;10575;50.124;8.582;2023-07-16T07:21:49;5.93;;;3.00;;
20828;SDS011;10575;50.124;8.582;2023-07-16T07:24:15;5.28;;;2.10;;
20828;SDS011;10575;50.124;8.582;2023-07-16T07:26:40;4.38;;;2.28;;
20828;SDS011;10575;50.124;8.582;2023-07-16T07:29:06;8.73;;;2.25;;
20828;SDS011;10575;50.124;8.582;2023-07-16T07:31:31;3.88;;;2.15;;
20828;SDS011;10575;50.124;8.582;2023-07-16T07:33:59;3.75;;;2.38;;
20828;SDS011;10575;50.124;8.582;2023-07-16T07:36:25;5.18;;;2.10;;
20828;SDS011;10575;50.124;8.582;2023-07-16T07:38:50;4.57;;;1.98;;
20828;SDS011;10575;50.124;8.582;2023-07-16T07:41:16;4.30;;;3.10;;
20828;SDS011;10575;50.124;8.582;2023-07-16T07:43:41;5.97;;;3.05;;
20828;SDS011;10575;50.124;8.582;2023-07-16T07:46:07;6.93;;;2.65;;
20828;SDS011;10575;50.124;8.582;2023-07-16T07:48:33;7.38;;;2.63;;
20828;SDS011;10575;50.124;8.582;2023-07-16T07:50:58;6.10;;;2.25;;
20828;SDS011;10575;50.124;8.582;2023-07-16T07:53:24;4.60;;;2.42;;
20828;SDS011;10575;50.124;8.582;2023-07-16T07:55:49;5.47;;;2.30;;
20828;SDS011;10575;50.124;8.582;2023-07-16T07:58:15;5.43;;;2.72;;
20828;SDS011;10575;50.124;8.582;2023-07-16T08:00:40;4.10;;;2.20;;
20828;SDS011;10575;50.124;8.582;2023-07-16T08:03:06;8.45;;;2.45;;
20828;SDS011;10575;50.124;8.582;2023-07-16T08:05:31;6.13;;;2.17;;
20828;SDS011;10575;50.124;8.582;2023-07-16T08:07:58;2.45;;;1.90;;
20828;SDS011;10575;50.124;8.582;2023-07-16T08:10:24;4.68;;;2.65;;
20828;SDS011;10575;50.124;8.582;2023-07-16T08:12:50;4.43;;;2.40;;
20828;SDS011;10575;50.124;8.582;2023-07-16T08:15:15;4.80;;;2.30;;
20828;SDS011;10575;50.124;8.582;2023-07-16T08:17:48;6.78;;;2.53;;
20828;SDS011;10575;50.124;8.582;2023-07-16T08:20:14;3.63;;;2.20;;
20828;SDS011;10575;50.124;8.582;2023-07-16T08:22:39;5.18;;;2.45;;
20828;SDS011;10575;50.124;8.582;2023-07-16T08:25:08;7.68;;;2.30;;
20828;SDS011;10575;50.124;8.582;2023-07-16T08:27:33;6.18;;;2.67;;
20828;SDS011;10575;50.124;8.582;2023-07-16T08:29:59;6.05;;;2.55;;
20828;SDS011;10575;50.124;8.582;2023-07-16T08:32:25;13.43;;;2.60;;
20828;SDS011;10575;50.124;8.582;2023-07-16T08:34:51;4.80;;;2.58;;
20828;SDS011;10575;50.124;8.582;2023-07-16T08:37:22;3.47;;;2.47;;
20828;SDS011;10575;50.124;8.582;2023-07-16T08:39:51;5.88;;;2.38;;
20828;SDS011;10575;50.124;8.582;2023-07-16T08:42:17;6.95;;;2.63;;
20828;SDS011;10575;50.124;8.582;2023-07-16T08:44:43;5.97;;;2.42;;
20828;SDS011;10575;50.124;8.582;2023-07-16T08:47:09;7.53;;;3.00;;
20828;SDS011;10575;50.124;8.582;2023-07-16T08:49:34;3.47;;;2.10;;
20828;SDS011;10575;50.124;8.582;2023-07-16T08:52:01;3.70;;;2.33;;
20828;SDS011;10575;50.124;8.582;2023-07-16T08:54:27;8.98;;;3.20;;
20828;SDS011;10575;50.124;8.582;2023-07-16T08:56:53;5.10;;;2.60;;
20828;SDS011;10575;50.124;8.582;2023-07-16T08:59:18;4.35;;;2.03;;
20828;SDS011;10575;50.124;8.582;2023-07-16T09:01:48;3.97;;;2.70;;
20828;SDS011;10575;50.124;8.582;2023-07-16T09:04:14;6.22;;;2.65;;
20828;SDS011;10575;50.124;8.582;2023-07-16T09:06:41;5.75;;;2.40;;
20828;SDS011;10575;50.124;8.582;2023-07-16T09:09:07;3.72;;;2.28;;
20828;SDS011;10575;50.124;8.582;2023-07-16T09:11:33;7.35;;;2.38;;
20828;SDS011;10575;50.124;8.582;2023-07-16T09:14:03;7.93;;;2.92;;
20828;SDS011;10575;50.124;8.582;2023-07-16T09:16:32;5.10;;;1.95;;
20828;SDS011;10575;50.124;8.582;2023-07-16T09:19:10;5.07;;;2.05;;
20828;SDS011;10575;50.124;8.582;2023-07-16T09:21:39;6.78;;;2.72;;
20828;SDS011;10575;50.124;8.582;2023-07-16T09:24:07;4.05;;;2.40;;
20828;SDS011;10575;50.124;8.582;2023-07-16T09:26:36;3.55;;;2.10;;
20828;SDS011;10575;50.124;8.582;2023-07-16T09:29:05;6.90;;;2.50;;
20828;SDS011;10575;50.124;8.582;2023-07-16T09:31:31;4.97;;;2.50;;
20828;SDS011;10575;50.124;8.582;2023-07-16T09:33:57;4.65;;;2.40;;
20828;SDS011;10575;50.124;8.582;2023-07-16T09:36:26;4.88;;;2.50;;
20828;SDS011;10575;50.124;8.582;2023-07-16T09:38:53;5.60;;;2.10;;
20828;SDS011;10575;50.124;8.582;2023-07-16T09:41:19;4.70;;;2.33;;
20828;SDS011;10575;50.124;8.582;2023-07-16T09:43:46;5.00;;;2.28;;
20828;SDS011;10575;50.124;8.582;2023-07-16T09:46:11;3.85;;;2.60;;
20828;SDS011;10575;50.124;8.582;2023-07-16T09:48:37;6.00;;;2.25;;
20828;SDS011;10575;50.124;8.582;2023-07-16T09:51:03;7.80;;;2.58;;
20828;SDS011;10575;50.124;8.582;2023-07-16T09:53:31;6.72;;;2.60;;
20828;SDS011;10575;50.124;8.582;2023-07-16T09:55:59;7.13;;;2.60;;
20828;SDS011;10575;50.124;8.582;2023-07-16T09:58:27;6.28;;;2.35;;
20828;SDS011;10575;50.124;8.582;2023-07-16T10:00:53;8.02;;;2.40;;
20828;SDS011;10575;50.124;8.582;2023-07-16T10:03:19;3.72;;;2.45;;
20828;SDS011;10575;50.124;8.582;2023-07-16T10:05:45;3.80;;;2.65;;
20828;SDS011;10575;50.124;8.582;2023-07-16T10:08:17;7.65;;;3.58;;
20828;SDS011;10575;50.124;8.582;2023-07-16T10:10:45;6.05;;;2.47;;
20828;SDS011;10575;50.124;8.582;2023-07-16T10:13:21;7.60;;;2.70;;
20828;SDS011;10575;50.124;8.582;2023-07-16T10:15:54;7.32;;;2.58;;
20828;SDS011;10575;50.124;8.582;2023-07-16T10:21:05;6.40;;;2.92;;
20828;SDS011;10575;50.124;8.582;2023-07-16T10:23:41;4.97;;;2.47;;
20828;SDS011;10575;50.124;8.582;2023-07-16T10:26:10;3.70;;;2.60;;
20828;SDS011;10575;50.124;8.582;2023-07-16T10:28:37;7.20;;;2.60;;
20828;SDS011;10575;50.124;8.582;2023-07-16T10:31:03;4.05;;;2.75;;
20828;SDS011;10575;50.124;8.582;2023-07-16T10:33:28;6.53;;;2.83;;
20828;SDS011;10575;50.124;8.582;2023-07-16T10:35:56;7.68;;;3.08;;
20828;SDS011;10575;50.124;8.582;2023-07-16T10:38:25;7.03;;;2.50;;
20828;SDS011;10575;50.124;8.582;2023-07-16T10:40:51;5.32;;;2.47;;
20828;SDS011;10575;50.124;8.582;2023-07-16T10:43:17;7.45;;;2.97;;
20828;SDS011;10575;50.124;8.582;2023-07-16T10:45:43;5.35;;;2.80;;
20828;SDS011;10575;50.124;8.582;2023-07-16T10:48:11;8.07;;;3.40;;
20828;SDS011;10575;50.124;8.582;2023-07-16T10:50:37;6.13;;;3.58;;
20828;SDS011;10575;50.124;8.582;2023-07-16T10:53:03;5.45;;;2.85;;
20828;SDS011;10575;50.124;8.582;2023-07-16T10:55:29;5.05;;;3.03;;
20828;SDS011;10575;50.124;8.582;2023-07-16T10:57:57;6.40;;;3.08;;
20828;SDS011;10575;50.124;8.582;2023-07-16T11:00:23;5.07;;;3.30;;
20828;SDS011;10575;50.124;8.582;2023-07-16T11:02:49;9.13;;;3.55;;
20828;SDS011;10575;50.124;8.582;2023-07-16T11:05:16;6.07;;;2.97;;
20828;SDS011;10575;50.124;8.582;2023-07-16T11:07:46;10.52;;;3.20;;
20828;SDS011;10575;50.124;8.582;2023-07-16T11:10:16;7.90;;;2.95;;
20828;SDS011;10575;50.124;8.582;2023-07-16T11:12:42;4.93;;;2.58;;
20828;SDS011;10575;50.124;8.582;2023-07-16T11:15:08;4.25;;;3.28;;
20828;SDS011;10575;50.124;8.582;2023-07-16T11:17:37;4.57;;;2.65;;
20828;SDS011;10575;50.124;8.582;2023-07-16T11:20:04;5.97;;;3.55;;
20828;SDS011;10575;50.124;8.582;2023-07-16T11:22:32;8.55;;;3.00;;
20828;SDS011;10575;50.124;8.582;2023-07-16T11:25:01;7.60;;;3.15;;
20828;SDS011;10575;50.124;8.582;2023-07-16T11:27:29;6.72;;;3.28;;
20828;SDS011;10575;50.124;8.582;2023-07-16T11:29:56;6.35;;;3.03;;
20828;SDS011;10575;50.124;8.582;2023-07-16T11:32:34;5.57;;;2.97;;
20828;SDS011;10575;50.124;8.582;2023-07-16T11:35:00;3.72;;;2.63;;
20828;SDS011;10575;50.124;8.582;2023-07-16T11:37:31;7.63;;;2.78;;
20828;SDS011;10575;50.124;8.582;2023-07-16T11:42:29;6.65;;;2.50;;
20828;SDS011;10575;50.124;8.582;2023-07-16T11:44:56;5.10;;;2.97;;
20828;SDS011;10575;50.124;8.582;2023-07-16T11:47:22;4.90;;;2.85;;
20828;SDS011;10575;50.124;8.582;2023-07-16T11:49:48;8.15;;;2.70;;
20828;SDS011;10575;50.124;8.582;2023-07-16T11:52:14;6.43;;;3.22;;
20828;SDS011;10575;50.124;8.582;2023-07-16T11:54:43;5.07;;;3.25;;
20828;SDS011;10575;50.124;8.582;2023-07-16T11:57:08;3.90;;;2.47;;
20828;SDS011;10575;50.124;8.582;2023-07-16T11:59:34;9.35;;;3.15;;
20828;SDS011;10575;50.124;8.582;2023-07-16T12:02:02;4.47;;;2.70;;
20828;SDS011;10575;50.124;8.582;2023-07-16T12:04:28;7.05;;;2.83;;
20828;SDS011;10575;50.124;8.582;2023-07-16T12:06:54;5.93;;;2.83;;
20828;SDS011;10575;50.124;8.582;2023-07-16T12:09:19;5.18;;;2.83;;
20828;SDS011;10575;50.124;8.582;2023-07-16T12:11:45;4.95;;;2.78;;
20828;SDS011;10575;50.124;8.582;2023-07-16T12:14:10;5.82;;;2.85;;
20828;SDS011;10575;50.124;8.582;2023-07-16T12:16:37;5.65;;;2.85;;
20828;SDS011;10575;50.124;8.582;2023-07-16T12:19:05;6.90;;;2.70;;
20828;SDS011;10575;50.124;8.582;2023-07-16T12:21:32;6.97;;;3.05;;
20828;SDS011;10575;50.124;8.582;2023-07-16T12:23:58;4.88;;;3.05;;
20828;SDS011;10575;50.124;8.582;2023-07-16T12:26:23;5.70;;;3.28;;
20828;SDS011;10575;50.124;8.582;2023-07-16T12:28:49;5.47;;;2.97;;
20828;SDS011;10575;50.124;8.582;2023-07-16T12:31:14;8.75;;;3.53;;
20828;SDS011;10575;50.124;8.582;2023-07-16T12:33:41;5.55;;;3.22;;
20828;SDS011;10575;50.124;8.582;2023-07-16T12:36:07;6.93;;;3.25;;
20828;SDS011;10575;50.124;8.582;2023-07-16T12:38:33;5.65;;;2.97;;
20828;SDS011;10575;50.124;8.582;2023-07-16T12:40:58;12.73;;;3.80;;
20828;SDS011;10575;50.124;8.582;2023-07-16T12:43:24;4.95;;;3.20;;
20828;SDS011;10575;50.124;8.582;2023-07-16T12:45:49;4.55;;;3.45;;
20828;SDS011;10575;50.124;8.582;2023-07-16T12:48:15;10.30;;;3.55;;
20828;SDS011;10575;50.124;8.582;2023-07-16T12:50:40;4.72;;;3.30;;
20828;SDS011;10575;50.124;8.582;2023-07-16T12:53:06;9.07;;;3.63;;
20828;SDS011;10575;50.124;8.582;2023-07-16T12:55:31;7.15;;;3.45;;
20828;SDS011;10575;50.124;8.582;2023-07-16T12:57:58;5.63;;;3.65;;
20828;SDS011;10575;50.124;8.582;2023-07-16T13:00:24;5.75;;;3.65;;
20828;SDS011;10575;50.124;8.582;2023-07-16T13:02:50;5.30;;;3.55;;
20828;SDS011;10575;50.124;8.582;2023-07-16T13:05:16;6.60;;;3.67;;
20828;SDS011;10575;50.124;8.582;2023-07-16T13:07:41;8.73;;;4.28;;
20828;SDS011;10575;50.124;8.582;2023-07-16T13:10:07;11.35;;;4.15;;
20828;SDS011;10575;50.124;8.582;2023-07-16T13:12:33;4.78;;;3.88;;
20828;SDS011;10575;50.124;8.582;2023-07-16T13:14:59;8.15;;;3.88;;
20828;SDS011;10575;50.124;8.582;2023-07-16T13:17:27;7.30;;;3.95;;
20828;SDS011;10575;50.124;8.582;2023-07-16T13:19:53;8.57;;;3.83;;
20828;SDS011;10575;50.124;8.582;2023-07-16T13:22:18;7.80;;;4.20;;
20828;SDS011;10575;50.124;8.582;2023-07-16T13:24:44;5.35;;;4.18;;
20828;SDS011;10575;50.124;8.582;2023-07-16T13:27:18;7.30;;;4.50;;
20828;SDS011;10575;50.124;8.582;2023-07-16T13:29:45;7.10;;;4.22;;
20828;SDS011;10575;50.124;8.582;2023-07-16T13:32:10;8.18;;;4.53;;
20828;SDS011;10575;50.124;8.582;2023-07-16T13:34:36;7.55;;;4.10;;
20828;SDS011;10575;50.124;8.582;2023-07-16T13:37:01;6.28;;;3.97;;
20828;SDS011;10575;50.124;8.582;2023-07-16T13:39:27;6.13;;;3.85;;
20828;SDS011;10575;50.124;8.582;2023-07-16T13:41:52;6.95;;;3.72;;
20828;SDS011;10575;50.124;8.582;2023-07-16T13:44:18;5.63;;;4.18;;
20828;SDS011;10575;50.124;8.582;2023-07-16T13:46:43;6.70;;;4.18;;
20828;SDS011;10575;50.124;8.582;2023-07-16T13:49:09;5.70;;;3.70;;
20828;SDS011;10575;50.124;8.582;2023-07-16T13:51:34;5.05;;;3.90;;
20828;SDS011;10575;50.124;8.582;2023-07-16T13:54:00;7.50;;;5.05;;
20828;SDS011;10575;50.124;8.582;2023-07-16T13:56:25;7.97;;;4.65;;
20828;SDS011;10575;50.124;8.582;2023-07-16T13:58:51;5.07;;;3.42;;
20828;SDS011;10575;50.124;8.582;2023-07-16T14:01:18;7.35;;;4.00;;
20828;SDS011;10575;50.124;8.582;2023-07-16T14:03:44;9.88;;;4.35;;
20828;SDS011;10575;50.124;8.582;2023-07-16T14:06:10;5.22;;;3.97;;
20828;SDS011;10575;50.124;8.582;2023-07-16T14:08:36;6.13;;;3.60;;
20828;SDS011;10575;50.124;8.582;2023-07-16T14:11:01;6.47;;;4.38;;
20828;SDS011;10575;50.124;8.582;2023-07-16T14:13:28;6.10;;;3.80;;
20828;SDS011;10575;50.124;8.582;2023-07-16T14:15:53;5.95;;;3.72;;
20828;SDS011;10575;50.124;8.582;2023-07-16T14:18:19;7.50;;;4.05;;
20828;SDS011;10575;50.124;8.582;2023-07-16T14:20:45;5.85;;;3.92;;
20828;SDS011;10575;50.124;8.582;2023-07-16T14:23:10;8.00;;;5.00;;
20828;SDS011;10575;50.124;8.582;2023-07-16T14:25:37;9.40;;;4.40;;
20828;SDS011;10575;50.124;8.582;2023-07-16T14:28:02;8.75;;;4.00;;
20828;SDS011;10575;50.124;8.582;2023-07-16T14:30:28;6.35;;;4.38;;
20828;SDS011;10575;50.124;8.582;2023-07-16T14:32:54;11.65;;;4.35;;
20828;SDS011;10575;50.124;8.582;2023-07-16T14:35:20;7.65;;;4.10;;
20828;SDS011;10575;50.124;8.582;2023-07-16T14:37:46;7.38;;;4.28;;
20828;SDS011;10575;50.124;8.582;2023-07-16T14:40:15;8.10;;;4.47;;
20828;SDS011;10575;50.124;8.582;2023-07-16T14:42:42;8.00;;;4.35;;
20828;SDS011;10575;50.124;8.582;2023-07-16T14:45:09;6.38;;;4.63;;
20828;SDS011;10575;50.124;8.582;2023-07-16T14:47:35;9.05;;;4.90;;
20828;SDS011;10575;50.124;8.582;2023-07-16T14:50:01;8.98;;;5.03;;
20828;SDS011;10575;50.124;8.582;2023-07-16T14:52:27;9.02;;;4.63;;
20828;SDS011;10575;50.124;8.582;2023-07-16T14:54:52;14.73;;;5.68;;
20828;SDS011;10575;50.124;8.582;2023-07-16T14:57:18;6.63;;;4.63;;